sensor_id;sensor_type;location;lat;lon;timestamp;P1;durP1;ratioP1;P2;durP2;ratioP2
13797;SDS011;6970;51.340;3.240;2023-02-18T00:00:06;33.80;;;20.17;;
13797;SDS011;6970;51.340;3.240;2023-02-18T00:02:35;33.63;;;18.63;;
13797;SDS011;6970;51.340;3.240;2023-02-18T00:05:02;34.90;;;20.13;;
13797;SDS011;6970;51.340;3.240;2023-02-18T00:07:32;37.50;;;21.43;;
13797;SDS011;6970;51.340;3.240;2023-02-18T00:10:00;38.27;;;21.57;;
13797;SDS011;6970;51.340;3.240;2023-02-18T00:12:29;35.00;;;22.47;;
13797;SDS011;6970;51.340;3.240;2023-02-18T00:14:56;37.37;;;24.57;;
13797;SDS011;6970;51.340;3.240;2023-02-18T00:17:24;37.60;;;20.90;;
13797;SDS011;6970;51.340;3.240;2023-02-18T00:19:51;33.27;;;22.23;;
13797;SDS011;6970;51.340;3.240;2023-02-18T00:22:18;29.17;;;20.67;;
13797;SDS011;6970;51.340;3.240;2023-02-18T00:24:45;32.23;;;20.97;;
13797;SDS011;6970;51.340;3.240;2023-02-18T00:27:12;35.90;;;20.57;;
13797;SDS011;6970;51.340;3.240;2023-02-18T00:29:39;26.33;;;18.63;;
13797;SDS011;6970;51.340;3.240;2023-02-18T00:32:07;29.83;;;18.53;;
13797;SDS011;6970;51.340;3.240;2023-02-18T00:34:34;34.70;;;19.80;;
13797;SDS011;6970;51.340;3.240;2023-02-18T00:37:01;29.10;;;18.87;;
13797;SDS011;6970;51.340;3.240;2023-02-18T00:39:27;29.90;;;20.20;;
13797;SDS011;6970;51.340;3.240;2023-02-18T00:41:54;25.67;;;18.00;;
13797;SDS011;6970;51.340;3.240;2023-02-18T00:44:21;30.07;;;19.53;;
13797;SDS011;6970;51.340;3.240;2023-02-18T00:46:48;26.90;;;18.80;;
13797;SDS011;6970;51.340;3.240;2023-02-18T00:49:15;28.70;;;20.40;;
13797;SDS011;6970;51.340;3.240;2023-02-18T00:51:43;26.97;;;19.67;;
13797;SDS011;6970;51.340;3.240;2023-02-18T00:54:09;28.67;;;20.33;;
13797;SDS011;6970;51.340;3.240;2023-02-18T00:56:36;23.77;;;18.03;;
13797;SDS011;6970;51.340;3.240;2023-02-18T00:59:03;27.23;;;19.03;;
13797;SDS011;6970;51.340;3.240;2023-02-18T01:01:30;28.80;;;18.63;;
13797;SDS011;6970;51.340;3.240;2023-02-18T01:03:58;26.77;;;17.70;;
13797;SDS011;6970;51.340;3.240;2023-02-18T01:06:26;25.07;;;17.93;;
13797;SDS011;6970;51.340;3.240;2023-02-18T01:08:53;24.60;;;17.23;;
13797;SDS011;6970;51.340;3.240;2023-02-18T01:11:19;24.10;;;17.17;;
13797;SDS011;6970;51.340;3.240;2023-02-18T01:13:46;25.80;;;17.83;;
13797;SDS011;6970;51.340;3.240;2023-02-18T01:16:14;24.00;;;17.03;;
13797;SDS011;6970;51.340;3.240;2023-02-18T01:18:43;23.53;;;16.37;;
13797;SDS011;6970;51.340;3.240;2023-02-18T01:21:10;19.83;;;15.13;;
13797;SDS011;6970;51.340;3.240;2023-02-18T01:23:37;21.30;;;15.07;;
13797;SDS011;6970;51.340;3.240;2023-02-18T01:26:05;18.53;;;13.80;;
13797;SDS011;6970;51.340;3.240;2023-02-18T01:28:33;17.00;;;13.30;;
13797;SDS011;6970;51.340;3.240;2023-02-18T01:31:04;14.67;;;12.77;;
13797;SDS011;6970;51.340;3.240;2023-02-18T01:33:34;17.23;;;13.47;;
13797;SDS011;6970;51.340;3.240;2023-02-18T01:36:01;20.80;;;15.27;;
13797;SDS011;6970;51.340;3.240;2023-02-18T01:38:28;16.80;;;14.90;;
13797;SDS011;6970;51.340;3.240;2023-02-18T01:40:57;18.73;;;14.97;;
13797;SDS011;6970;51.340;3.240;2023-02-18T01:43:24;18.80;;;14.40;;
13797;SDS011;6970;51.340;3.240;2023-02-18T01:46:11;19.47;;;14.47;;
13797;SDS011;6970;51.340;3.240;2023-02-18T01:48:59;23.20;;;17.23;;
13797;SDS011;6970;51.340;3.240;2023-02-18T01:51:28;27.77;;;17.13;;
13797;SDS011;6970;51.340;3.240;2023-02-18T01:59:38;37.00;;;20.03;;
13797;SDS011;6970;51.340;3.240;2023-02-18T02:02:10;34.80;;;19.60;;
13797;SDS011;6970;51.340;3.240;2023-02-18T02:04:40;32.57;;;21.67;;
13797;SDS011;6970;51.340;3.240;2023-02-18T02:07:07;42.30;;;24.00;;
13797;SDS011;6970;51.340;3.240;2023-02-18T02:09:35;45.10;;;25.70;;
13797;SDS011;6970;51.340;3.240;2023-02-18T02:25:39;36.77;;;22.77;;
13797;SDS011;6970;51.340;3.240;2023-02-18T02:31:22;34.73;;;22.33;;
13797;SDS011;6970;51.340;3.240;2023-02-18T02:40:26;48.60;;;23.37;;
13797;SDS011;6970;51.340;3.240;2023-02-18T02:43:15;42.27;;;21.80;;
13797;SDS011;6970;51.340;3.240;2023-02-18T02:54:17;53.33;;;22.97;;
13797;SDS011;6970;51.340;3.240;2023-02-18T02:56:46;47.30;;;21.37;;
13797;SDS011;6970;51.340;3.240;2023-02-18T02:59:18;59.83;;;23.27;;
13797;SDS011;6970;51.340;3.240;2023-02-18T03:21:12;48.33;;;18.67;;
13797;SDS011;6970;51.340;3.240;2023-02-18T03:23:54;36.30;;;16.03;;
13797;SDS011;6970;51.340;3.240;2023-02-18T03:26:44;41.97;;;17.60;;
13797;SDS011;6970;51.340;3.240;2023-02-18T03:29:18;32.70;;;15.77;;
13797;SDS011;6970;51.340;3.240;2023-02-18T03:31:48;30.10;;;14.60;;
13797;SDS011;6970;51.340;3.240;2023-02-18T03:34:30;27.40;;;14.13;;
13797;SDS011;6970;51.340;3.240;2023-02-18T03:37:01;24.40;;;13.63;;
13797;SDS011;6970;51.340;3.240;2023-02-18T03:39:29;22.13;;;12.73;;
13797;SDS011;6970;51.340;3.240;2023-02-18T03:41:59;27.27;;;13.30;;
13797;SDS011;6970;51.340;3.240;2023-02-18T03:44:27;23.17;;;12.43;;
13797;SDS011;6970;51.340;3.240;2023-02-18T03:46:56;22.53;;;10.80;;
13797;SDS011;6970;51.340;3.240;2023-02-18T03:49:23;20.80;;;11.37;;
13797;SDS011;6970;51.340;3.240;2023-02-18T03:51:49;19.43;;;10.93;;
13797;SDS011;6970;51.340;3.240;2023-02-18T03:54:17;25.03;;;11.43;;
13797;SDS011;6970;51.340;3.240;2023-02-18T03:56:45;22.40;;;10.67;;
13797;SDS011;6970;51.340;3.240;2023-02-18T03:59:12;22.23;;;10.80;;
13797;SDS011;6970;51.340;3.240;2023-02-18T04:01:39;23.07;;;10.77;;
13797;SDS011;6970;51.340;3.240;2023-02-18T04:04:06;24.27;;;10.93;;
13797;SDS011;6970;51.340;3.240;2023-02-18T04:06:33;17.83;;;10.20;;
13797;SDS011;6970;51.340;3.240;2023-02-18T04:09:00;17.60;;;10.53;;
13797;SDS011;6970;51.340;3.240;2023-02-18T04:11:38;23.00;;;9.60;;
13797;SDS011;6970;51.340;3.240;2023-02-18T04:14:06;26.07;;;9.53;;
13797;SDS011;6970;51.340;3.240;2023-02-18T04:16:33;28.47;;;10.00;;
13797;SDS011;6970;51.340;3.240;2023-02-18T04:19:00;22.17;;;7.83;;
13797;SDS011;6970;51.340;3.240;2023-02-18T04:21:28;25.00;;;7.53;;
13797;SDS011;6970;51.340;3.240;2023-02-18T04:23:55;24.13;;;7.13;;
13797;SDS011;6970;51.340;3.240;2023-02-18T04:26:22;18.67;;;6.50;;
13797;SDS011;6970;51.340;3.240;2023-02-18T04:28:49;16.57;;;5.33;;
13797;SDS011;6970;51.340;3.240;2023-02-18T04:31:16;25.87;;;6.10;;
13797;SDS011;6970;51.340;3.240;2023-02-18T04:33:44;20.50;;;5.50;;
13797;SDS011;6970;51.340;3.240;2023-02-18T04:36:11;21.43;;;5.73;;
13797;SDS011;6970;51.340;3.240;2023-02-18T04:38:38;21.13;;;4.63;;
13797;SDS011;6970;51.340;3.240;2023-02-18T04:41:07;23.83;;;4.87;;
13797;SDS011;6970;51.340;3.240;2023-02-18T04:43:34;18.83;;;4.67;;
13797;SDS011;6970;51.340;3.240;2023-02-18T04:46:01;25.23;;;5.17;;
13797;SDS011;6970;51.340;3.240;2023-02-18T04:48:28;22.83;;;4.73;;
13797;SDS011;6970;51.340;3.240;2023-02-18T04:50:55;19.73;;;4.43;;
13797;SDS011;6970;51.340;3.240;2023-02-18T04:53:22;27.07;;;5.00;;
13797;SDS011;6970;51.340;3.240;2023-02-18T04:55:50;22.27;;;4.53;;
13797;SDS011;6970;51.340;3.240;2023-02-18T04:58:17;23.00;;;4.60;;
13797;SDS011;6970;51.340;3.240;2023-02-18T05:00:45;23.70;;;4.00;;
13797;SDS011;6970;51.340;3.240;2023-02-18T05:03:12;24.90;;;4.33;;
13797;SDS011;6970;51.340;3.240;2023-02-18T05:05:39;26.27;;;4.43;;
13797;SDS011;6970;51.340;3.240;2023-02-18T05:08:07;22.70;;;4.33;;
13797;SDS011;6970;51.340;3.240;2023-02-18T05:10:35;22.20;;;4.80;;
13797;SDS011;6970;51.340;3.240;2023-02-18T05:13:03;24.03;;;4.83;;
13797;SDS011;6970;51.340;3.240;2023-02-18T05:15:31;28.47;;;5.83;;
13797;SDS011;6970;51.340;3.240;2023-02-18T05:17:58;26.60;;;4.97;;
13797;SDS011;6970;51.340;3.240;2023-02-18T05:20:25;25.70;;;5.67;;
13797;SDS011;6970;51.340;3.240;2023-02-18T05:22:52;27.93;;;5.13;;
13797;SDS011;6970;51.340;3.240;2023-02-18T05:25:19;20.97;;;5.00;;
13797;SDS011;6970;51.340;3.240;2023-02-18T05:27:46;26.00;;;5.43;;
13797;SDS011;6970;51.340;3.240;2023-02-18T05:30:13;33.67;;;6.20;;
13797;SDS011;6970;51.340;3.240;2023-02-18T05:32:40;30.37;;;5.50;;
13797;SDS011;6970;51.340;3.240;2023-02-18T05:35:07;20.90;;;4.27;;
13797;SDS011;6970;51.340;3.240;2023-02-18T05:37:35;23.57;;;4.37;;
13797;SDS011;6970;51.340;3.240;2023-02-18T05:40:02;25.10;;;4.23;;
13797;SDS011;6970;51.340;3.240;2023-02-18T05:42:30;24.27;;;4.70;;
13797;SDS011;6970;51.340;3.240;2023-02-18T05:44:58;25.13;;;4.73;;
13797;SDS011;6970;51.340;3.240;2023-02-18T05:47:25;21.50;;;5.63;;
13797;SDS011;6970;51.340;3.240;2023-02-18T05:49:52;17.17;;;4.67;;
13797;SDS011;6970;51.340;3.240;2023-02-18T05:52:21;28.83;;;5.20;;
13797;SDS011;6970;51.340;3.240;2023-02-18T05:54:48;22.10;;;5.20;;
13797;SDS011;6970;51.340;3.240;2023-02-18T05:57:15;29.47;;;4.50;;
13797;SDS011;6970;51.340;3.240;2023-02-18T05:59:43;18.53;;;3.87;;
13797;SDS011;6970;51.340;3.240;2023-02-18T06:02:10;20.43;;;4.37;;
13797;SDS011;6970;51.340;3.240;2023-02-18T06:04:37;18.07;;;3.80;;
13797;SDS011;6970;51.340;3.240;2023-02-18T06:07:05;24.97;;;4.63;;
13797;SDS011;6970;51.340;3.240;2023-02-18T06:09:32;19.40;;;4.60;;
13797;SDS011;6970;51.340;3.240;2023-02-18T06:12:00;24.23;;;3.87;;
13797;SDS011;6970;51.340;3.240;2023-02-18T06:14:27;21.17;;;4.27;;
13797;SDS011;6970;51.340;3.240;2023-02-18T06:16:54;23.47;;;4.63;;
13797;SDS011;6970;51.340;3.240;2023-02-18T06:19:21;21.03;;;4.33;;
13797;SDS011;6970;51.340;3.240;2023-02-18T06:21:48;22.10;;;4.10;;
13797;SDS011;6970;51.340;3.240;2023-02-18T06:24:15;21.13;;;4.17;;
13797;SDS011;6970;51.340;3.240;2023-02-18T06:26:42;19.00;;;4.97;;
13797;SDS011;6970;51.340;3.240;2023-02-18T06:29:09;25.37;;;5.30;;
13797;SDS011;6970;51.340;3.240;2023-02-18T06:31:36;28.07;;;5.07;;
13797;SDS011;6970;51.340;3.240;2023-02-18T06:34:03;24.03;;;4.87;;
13797;SDS011;6970;51.340;3.240;2023-02-18T06:36:30;25.63;;;5.03;;
13797;SDS011;6970;51.340;3.240;2023-02-18T06:38:57;18.30;;;4.33;;
13797;SDS011;6970;51.340;3.240;2023-02-18T06:41:24;27.57;;;4.93;;
13797;SDS011;6970;51.340;3.240;2023-02-18T06:43:51;24.03;;;5.00;;
13797;SDS011;6970;51.340;3.240;2023-02-18T06:46:18;25.33;;;4.67;;
13797;SDS011;6970;51.340;3.240;2023-02-18T06:48:45;17.93;;;4.00;;
13797;SDS011;6970;51.340;3.240;2023-02-18T06:51:12;14.67;;;3.93;;
13797;SDS011;6970;51.340;3.240;2023-02-18T06:53:39;25.10;;;4.60;;
13797;SDS011;6970;51.340;3.240;2023-02-18T06:56:07;18.83;;;4.73;;
13797;SDS011;6970;51.340;3.240;2023-02-18T06:58:34;18.73;;;3.83;;
13797;SDS011;6970;51.340;3.240;2023-02-18T07:01:01;23.90;;;4.70;;
13797;SDS011;6970;51.340;3.240;2023-02-18T07:03:30;28.90;;;4.60;;
13797;SDS011;6970;51.340;3.240;2023-02-18T07:06:00;23.27;;;4.17;;
13797;SDS011;6970;51.340;3.240;2023-02-18T07:08:28;23.30;;;4.40;;
13797;SDS011;6970;51.340;3.240;2023-02-18T07:10:57;19.93;;;4.60;;
13797;SDS011;6970;51.340;3.240;2023-02-18T07:13:24;19.67;;;4.37;;
13797;SDS011;6970;51.340;3.240;2023-02-18T07:15:54;16.57;;;4.30;;
13797;SDS011;6970;51.340;3.240;2023-02-18T07:18:29;21.00;;;4.17;;
13797;SDS011;6970;51.340;3.240;2023-02-18T07:20:56;17.00;;;3.90;;
13797;SDS011;6970;51.340;3.240;2023-02-18T07:23:25;18.40;;;4.50;;
13797;SDS011;6970;51.340;3.240;2023-02-18T07:28:29;13.43;;;3.37;;
13797;SDS011;6970;51.340;3.240;2023-02-18T07:31:00;17.40;;;3.43;;
13797;SDS011;6970;51.340;3.240;2023-02-18T07:35:59;17.10;;;5.50;;
13797;SDS011;6970;51.340;3.240;2023-02-18T07:38:31;10.70;;;2.80;;
13797;SDS011;6970;51.340;3.240;2023-02-18T07:43:28;11.53;;;2.30;;
13797;SDS011;6970;51.340;3.240;2023-02-18T07:45:57;10.23;;;2.53;;
13797;SDS011;6970;51.340;3.240;2023-02-18T07:48:24;17.93;;;3.30;;
13797;SDS011;6970;51.340;3.240;2023-02-18T07:50:51;12.43;;;3.07;;
13797;SDS011;6970;51.340;3.240;2023-02-18T07:53:21;17.20;;;3.00;;
13797;SDS011;6970;51.340;3.240;2023-02-18T07:55:49;12.50;;;3.10;;
13797;SDS011;6970;51.340;3.240;2023-02-18T07:58:24;10.70;;;2.73;;
13797;SDS011;6970;51.340;3.240;2023-02-18T08:00:53;15.47;;;3.13;;
13797;SDS011;6970;51.340;3.240;2023-02-18T08:03:21;8.57;;;2.87;;
13797;SDS011;6970;51.340;3.240;2023-02-18T08:05:52;14.73;;;3.60;;
13797;SDS011;6970;51.340;3.240;2023-02-18T08:10:53;11.27;;;2.40;;
13797;SDS011;6970;51.340;3.240;2023-02-18T08:13:27;11.23;;;2.83;;
13797;SDS011;6970;51.340;3.240;2023-02-18T08:15:57;8.93;;;2.27;;
13797;SDS011;6970;51.340;3.240;2023-02-18T08:18:27;12.67;;;2.10;;
13797;SDS011;6970;51.340;3.240;2023-02-18T08:20:54;10.53;;;2.50;;
13797;SDS011;6970;51.340;3.240;2023-02-18T08:23:24;11.43;;;3.13;;
13797;SDS011;6970;51.340;3.240;2023-02-18T08:25:54;12.50;;;2.77;;
13797;SDS011;6970;51.340;3.240;2023-02-18T08:30:55;14.23;;;2.20;;
13797;SDS011;6970;51.340;3.240;2023-02-18T08:35:54;9.47;;;2.50;;
13797;SDS011;6970;51.340;3.240;2023-02-18T08:38:22;9.37;;;2.10;;
13797;SDS011;6970;51.340;3.240;2023-02-18T08:41:00;8.00;;;2.77;;
13797;SDS011;6970;51.340;3.240;2023-02-18T08:43:34;10.23;;;2.17;;
13797;SDS011;6970;51.340;3.240;2023-02-18T08:46:05;11.50;;;2.40;;
13797;SDS011;6970;51.340;3.240;2023-02-18T08:48:35;9.93;;;2.00;;
13797;SDS011;6970;51.340;3.240;2023-02-18T08:51:17;9.17;;;2.03;;
13797;SDS011;6970;51.340;3.240;2023-02-18T08:53:49;11.50;;;3.10;;
13797;SDS011;6970;51.340;3.240;2023-02-18T08:58:46;8.13;;;2.20;;
13797;SDS011;6970;51.340;3.240;2023-02-18T09:01:14;11.67;;;2.77;;
13797;SDS011;6970;51.340;3.240;2023-02-18T09:03:42;12.30;;;2.30;;
13797;SDS011;6970;51.340;3.240;2023-02-18T09:06:10;9.73;;;2.07;;
13797;SDS011;6970;51.340;3.240;2023-02-18T09:08:37;11.27;;;2.83;;
13797;SDS011;6970;51.340;3.240;2023-02-18T09:11:06;9.37;;;2.20;;
13797;SDS011;6970;51.340;3.240;2023-02-18T09:13:34;11.70;;;2.67;;
13797;SDS011;6970;51.340;3.240;2023-02-18T09:16:03;8.90;;;2.27;;
13797;SDS011;6970;51.340;3.240;2023-02-18T09:23:44;9.93;;;2.47;;
13797;SDS011;6970;51.340;3.240;2023-02-18T09:26:12;10.17;;;2.57;;
13797;SDS011;6970;51.340;3.240;2023-02-18T09:28:42;9.00;;;2.20;;
13797;SDS011;6970;51.340;3.240;2023-02-18T09:31:11;16.47;;;2.73;;
13797;SDS011;6970;51.340;3.240;2023-02-18T09:33:44;6.10;;;2.10;;
13797;SDS011;6970;51.340;3.240;2023-02-18T09:36:32;12.23;;;2.80;;
13797;SDS011;6970;51.340;3.240;2023-02-18T09:38:59;13.73;;;2.90;;
13797;SDS011;6970;51.340;3.240;2023-02-18T09:41:43;10.87;;;2.87;;
13797;SDS011;6970;51.340;3.240;2023-02-18T09:54:44;11.07;;;2.93;;
13797;SDS011;6970;51.340;3.240;2023-02-18T10:00:10;12.70;;;2.70;;
13797;SDS011;6970;51.340;3.240;2023-02-18T10:02:41;12.00;;;2.97;;
13797;SDS011;6970;51.340;3.240;2023-02-18T10:05:31;11.13;;;3.03;;
13797;SDS011;6970;51.340;3.240;2023-02-18T10:08:03;13.93;;;2.87;;
13797;SDS011;6970;51.340;3.240;2023-02-18T10:10:36;12.60;;;3.50;;
13797;SDS011;6970;51.340;3.240;2023-02-18T10:13:12;15.47;;;3.30;;
13797;SDS011;6970;51.340;3.240;2023-02-18T10:15:41;11.33;;;2.87;;
13797;SDS011;6970;51.340;3.240;2023-02-18T10:24:05;16.70;;;3.20;;
13797;SDS011;6970;51.340;3.240;2023-02-18T10:26:46;16.70;;;4.00;;
13797;SDS011;6970;51.340;3.240;2023-02-18T10:29:17;15.77;;;3.67;;
13797;SDS011;6970;51.340;3.240;2023-02-18T10:34:59;15.57;;;3.60;;
13797;SDS011;6970;51.340;3.240;2023-02-18T10:43:05;14.07;;;3.10;;
13797;SDS011;6970;51.340;3.240;2023-02-18T10:51:14;13.20;;;3.27;;
13797;SDS011;6970;51.340;3.240;2023-02-18T10:53:49;16.50;;;3.30;;
13797;SDS011;6970;51.340;3.240;2023-02-18T10:56:37;13.80;;;3.47;;
13797;SDS011;6970;51.340;3.240;2023-02-18T11:01:41;18.33;;;3.37;;
13797;SDS011;6970;51.340;3.240;2023-02-18T11:04:18;14.60;;;2.80;;
13797;SDS011;6970;51.340;3.240;2023-02-18T11:06:52;17.97;;;3.63;;
13797;SDS011;6970;51.340;3.240;2023-02-18T11:09:39;16.50;;;2.93;;
13797;SDS011;6970;51.340;3.240;2023-02-18T11:15:28;19.00;;;3.30;;
13797;SDS011;6970;51.340;3.240;2023-02-18T11:18:12;17.63;;;3.07;;
13797;SDS011;6970;51.340;3.240;2023-02-18T11:20:56;16.33;;;3.10;;
13797;SDS011;6970;51.340;3.240;2023-02-18T11:23:27;14.47;;;3.13;;
13797;SDS011;6970;51.340;3.240;2023-02-18T11:26:06;20.37;;;4.03;;
13797;SDS011;6970;51.340;3.240;2023-02-18T11:31:15;13.43;;;3.17;;
13797;SDS011;6970;51.340;3.240;2023-02-18T11:33:49;21.30;;;3.43;;
13797;SDS011;6970;51.340;3.240;2023-02-18T11:36:32;19.43;;;3.50;;
13797;SDS011;6970;51.340;3.240;2023-02-18T11:39:24;18.43;;;3.30;;
13797;SDS011;6970;51.340;3.240;2023-02-18T11:41:56;18.10;;;2.77;;
13797;SDS011;6970;51.340;3.240;2023-02-18T11:49:41;21.13;;;4.27;;
13797;SDS011;6970;51.340;3.240;2023-02-18T11:54:59;9.37;;;2.80;;
13797;SDS011;6970;51.340;3.240;2023-02-18T11:57:31;14.37;;;3.20;;
13797;SDS011;6970;51.340;3.240;2023-02-18T12:00:14;15.00;;;3.70;;
13797;SDS011;6970;51.340;3.240;2023-02-18T12:02:44;14.23;;;3.50;;
13797;SDS011;6970;51.340;3.240;2023-02-18T12:05:25;17.50;;;4.33;;
13797;SDS011;6970;51.340;3.240;2023-02-18T12:10:41;17.73;;;3.80;;
13797;SDS011;6970;51.340;3.240;2023-02-18T12:24:48;14.03;;;3.33;;
13797;SDS011;6970;51.340;3.240;2023-02-18T12:27:28;20.03;;;3.67;;
13797;SDS011;6970;51.340;3.240;2023-02-18T12:52:49;13.90;;;2.80;;
13797;SDS011;6970;51.340;3.240;2023-02-18T12:55:44;23.23;;;3.93;;
13797;SDS011;6970;51.340;3.240;2023-02-18T13:15:39;17.33;;;3.67;;
13797;SDS011;6970;51.340;3.240;2023-02-18T13:18:17;14.47;;;3.23;;
13797;SDS011;6970;51.340;3.240;2023-02-18T13:23:45;9.90;;;2.93;;
13797;SDS011;6970;51.340;3.240;2023-02-18T13:26:17;17.40;;;2.93;;
13797;SDS011;6970;51.340;3.240;2023-02-18T13:32:06;13.93;;;3.10;;
13797;SDS011;6970;51.340;3.240;2023-02-18T13:40:05;12.30;;;2.93;;
13797;SDS011;6970;51.340;3.240;2023-02-18T13:42:42;15.30;;;3.07;;
13797;SDS011;6970;51.340;3.240;2023-02-18T13:48:00;14.67;;;3.90;;
13797;SDS011;6970;51.340;3.240;2023-02-18T13:50:31;16.93;;;4.60;;
13797;SDS011;6970;51.340;3.240;2023-02-18T13:55:41;16.37;;;4.00;;
13797;SDS011;6970;51.340;3.240;2023-02-18T13:58:22;20.67;;;3.77;;
13797;SDS011;6970;51.340;3.240;2023-02-18T14:11:54;19.23;;;4.77;;
13797;SDS011;6970;51.340;3.240;2023-02-18T14:14:32;16.63;;;3.80;;
13797;SDS011;6970;51.340;3.240;2023-02-18T14:22:43;18.80;;;4.00;;
13797;SDS011;6970;51.340;3.240;2023-02-18T14:28:00;15.20;;;4.37;;
13797;SDS011;6970;51.340;3.240;2023-02-18T14:30:32;13.63;;;5.03;;
13797;SDS011;6970;51.340;3.240;2023-02-18T14:33:11;13.37;;;3.73;;
13797;SDS011;6970;51.340;3.240;2023-02-18T14:42:17;17.33;;;4.60;;
13797;SDS011;6970;51.340;3.240;2023-02-18T14:50:37;18.93;;;4.40;;
13797;SDS011;6970;51.340;3.240;2023-02-18T14:53:16;17.37;;;4.47;;
13797;SDS011;6970;51.340;3.240;2023-02-18T14:55:50;20.57;;;4.57;;
13797;SDS011;6970;51.340;3.240;2023-02-18T14:58:40;12.50;;;3.80;;
13797;SDS011;6970;51.340;3.240;2023-02-18T15:01:21;20.87;;;4.37;;
13797;SDS011;6970;51.340;3.240;2023-02-18T15:03:53;20.43;;;4.47;;
13797;SDS011;6970;51.340;3.240;2023-02-18T15:06:27;15.50;;;4.10;;
13797;SDS011;6970;51.340;3.240;2023-02-18T15:09:20;13.10;;;3.47;;
13797;SDS011;6970;51.340;3.240;2023-02-18T15:11:54;10.87;;;3.33;;
13797;SDS011;6970;51.340;3.240;2023-02-18T15:16:59;18.33;;;4.20;;
13797;SDS011;6970;51.340;3.240;2023-02-18T15:19:29;16.83;;;4.17;;
13797;SDS011;6970;51.340;3.240;2023-02-18T15:24:40;10.13;;;2.97;;
13797;SDS011;6970;51.340;3.240;2023-02-18T15:27:30;20.73;;;4.60;;
13797;SDS011;6970;51.340;3.240;2023-02-18T15:30:41;16.03;;;3.83;;
13797;SDS011;6970;51.340;3.240;2023-02-18T15:35:30;16.97;;;3.93;;
13797;SDS011;6970;51.340;3.240;2023-02-18T15:37:59;14.83;;;3.53;;
13797;SDS011;6970;51.340;3.240;2023-02-18T15:40:30;14.47;;;3.73;;
13797;SDS011;6970;51.340;3.240;2023-02-18T15:43:00;16.40;;;3.53;;
13797;SDS011;6970;51.340;3.240;2023-02-18T15:45:36;20.13;;;4.53;;
13797;SDS011;6970;51.340;3.240;2023-02-18T15:48:30;14.33;;;3.30;;
13797;SDS011;6970;51.340;3.240;2023-02-18T15:51:04;22.33;;;4.50;;
13797;SDS011;6970;51.340;3.240;2023-02-18T15:53:45;18.57;;;4.57;;
13797;SDS011;6970;51.340;3.240;2023-02-18T15:56:32;16.60;;;4.50;;
13797;SDS011;6970;51.340;3.240;2023-02-18T15:59:12;21.87;;;4.57;;
13797;SDS011;6970;51.340;3.240;2023-02-18T16:01:52;21.23;;;4.67;;
13797;SDS011;6970;51.340;3.240;2023-02-18T16:04:27;19.03;;;4.30;;
13797;SDS011;6970;51.340;3.240;2023-02-18T16:06:57;16.27;;;4.10;;
13797;SDS011;6970;51.340;3.240;2023-02-18T16:09:36;19.60;;;4.70;;
13797;SDS011;6970;51.340;3.240;2023-02-18T16:12:16;27.67;;;4.97;;
13797;SDS011;6970;51.340;3.240;2023-02-18T16:14:54;22.23;;;4.13;;
13797;SDS011;6970;51.340;3.240;2023-02-18T16:17:24;23.00;;;5.40;;
13797;SDS011;6970;51.340;3.240;2023-02-18T16:20:01;17.90;;;4.43;;
13797;SDS011;6970;51.340;3.240;2023-02-18T16:22:46;20.67;;;4.43;;
13797;SDS011;6970;51.340;3.240;2023-02-18T16:25:21;25.20;;;5.57;;
13797;SDS011;6970;51.340;3.240;2023-02-18T16:28:05;17.80;;;4.90;;
13797;SDS011;6970;51.340;3.240;2023-02-18T16:30:38;25.47;;;4.87;;
13797;SDS011;6970;51.340;3.240;2023-02-18T16:33:07;23.73;;;6.30;;
13797;SDS011;6970;51.340;3.240;2023-02-18T16:35:34;19.30;;;5.03;;
13797;SDS011;6970;51.340;3.240;2023-02-18T16:38:18;29.20;;;5.70;;
13797;SDS011;6970;51.340;3.240;2023-02-18T16:40:48;23.93;;;5.53;;
13797;SDS011;6970;51.340;3.240;2023-02-18T16:43:16;24.37;;;4.93;;
13797;SDS011;6970;51.340;3.240;2023-02-18T16:45:52;17.50;;;3.97;;
13797;SDS011;6970;51.340;3.240;2023-02-18T16:48:26;24.60;;;5.10;;
13797;SDS011;6970;51.340;3.240;2023-02-18T16:53:32;16.43;;;4.40;;
13797;SDS011;6970;51.340;3.240;2023-02-18T16:56:01;15.83;;;4.10;;
13797;SDS011;6970;51.340;3.240;2023-02-18T16:58:32;16.87;;;5.00;;
13797;SDS011;6970;51.340;3.240;2023-02-18T17:00:59;16.53;;;4.77;;
13797;SDS011;6970;51.340;3.240;2023-02-18T17:03:26;19.73;;;5.47;;
13797;SDS011;6970;51.340;3.240;2023-02-18T17:05:53;21.30;;;6.97;;
13797;SDS011;6970;51.340;3.240;2023-02-18T17:08:24;15.80;;;4.97;;
13797;SDS011;6970;51.340;3.240;2023-02-18T17:10:55;13.70;;;4.93;;
13797;SDS011;6970;51.340;3.240;2023-02-18T17:13:28;19.67;;;5.50;;
13797;SDS011;6970;51.340;3.240;2023-02-18T17:15:56;19.87;;;4.87;;
13797;SDS011;6970;51.340;3.240;2023-02-18T17:20:54;12.87;;;5.10;;
13797;SDS011;6970;51.340;3.240;2023-02-18T17:23:24;15.53;;;5.20;;
13797;SDS011;6970;51.340;3.240;2023-02-18T17:25:51;12.70;;;5.37;;
13797;SDS011;6970;51.340;3.240;2023-02-18T17:30:55;17.33;;;5.07;;
13797;SDS011;6970;51.340;3.240;2023-02-18T17:33:26;12.77;;;5.27;;
13797;SDS011;6970;51.340;3.240;2023-02-18T17:35:54;13.47;;;5.47;;
13797;SDS011;6970;51.340;3.240;2023-02-18T17:38:21;12.63;;;5.30;;
13797;SDS011;6970;51.340;3.240;2023-02-18T17:40:49;14.77;;;5.77;;
13797;SDS011;6970;51.340;3.240;2023-02-18T17:43:18;18.60;;;5.57;;
13797;SDS011;6970;51.340;3.240;2023-02-18T17:45:52;17.17;;;4.83;;
13797;SDS011;6970;51.340;3.240;2023-02-18T17:48:23;17.97;;;5.00;;
13797;SDS011;6970;51.340;3.240;2023-02-18T17:50:54;12.27;;;4.33;;
13797;SDS011;6970;51.340;3.240;2023-02-18T17:53:24;10.13;;;5.13;;
13797;SDS011;6970;51.340;3.240;2023-02-18T17:55:57;15.93;;;4.40;;
13797;SDS011;6970;51.340;3.240;2023-02-18T18:00:56;14.00;;;4.40;;
13797;SDS011;6970;51.340;3.240;2023-02-18T18:03:23;23.37;;;5.67;;
13797;SDS011;6970;51.340;3.240;2023-02-18T18:05:52;16.27;;;4.67;;
13797;SDS011;6970;51.340;3.240;2023-02-18T18:08:25;20.67;;;6.13;;
13797;SDS011;6970;51.340;3.240;2023-02-18T18:10:59;18.93;;;5.23;;
13797;SDS011;6970;51.340;3.240;2023-02-18T18:13:28;23.80;;;7.30;;
13797;SDS011;6970;51.340;3.240;2023-02-18T18:16:02;17.63;;;6.07;;
13797;SDS011;6970;51.340;3.240;2023-02-18T18:21:02;29.70;;;7.23;;
13797;SDS011;6970;51.340;3.240;2023-02-18T18:23:29;21.37;;;7.10;;
13797;SDS011;6970;51.340;3.240;2023-02-18T18:25:59;22.63;;;7.43;;
13797;SDS011;6970;51.340;3.240;2023-02-18T18:28:26;20.87;;;6.90;;
13797;SDS011;6970;51.340;3.240;2023-02-18T18:30:54;26.00;;;7.23;;
13797;SDS011;6970;51.340;3.240;2023-02-18T18:33:23;32.73;;;7.57;;
13797;SDS011;6970;51.340;3.240;2023-02-18T18:35:53;20.33;;;7.47;;
13797;SDS011;6970;51.340;3.240;2023-02-18T18:38:22;27.27;;;7.37;;
13797;SDS011;6970;51.340;3.240;2023-02-18T18:40:51;25.93;;;7.27;;
13797;SDS011;6970;51.340;3.240;2023-02-18T18:43:20;22.50;;;7.07;;
13797;SDS011;6970;51.340;3.240;2023-02-18T18:48:22;24.90;;;7.63;;
13797;SDS011;6970;51.340;3.240;2023-02-18T18:53:29;26.20;;;7.40;;
13797;SDS011;6970;51.340;3.240;2023-02-18T18:56:00;21.63;;;6.53;;
13797;SDS011;6970;51.340;3.240;2023-02-18T18:58:30;23.90;;;6.23;;
13797;SDS011;6970;51.340;3.240;2023-02-18T19:00:58;24.37;;;7.53;;
13797;SDS011;6970;51.340;3.240;2023-02-18T19:03:27;37.57;;;12.27;;
13797;SDS011;6970;51.340;3.240;2023-02-18T19:05:55;24.87;;;8.83;;
13797;SDS011;6970;51.340;3.240;2023-02-18T19:08:22;25.77;;;8.17;;
13797;SDS011;6970;51.340;3.240;2023-02-18T19:10:52;27.33;;;8.43;;
13797;SDS011;6970;51.340;3.240;2023-02-18T19:13:24;27.00;;;7.73;;
13797;SDS011;6970;51.340;3.240;2023-02-18T19:18:41;34.27;;;8.97;;
13797;SDS011;6970;51.340;3.240;2023-02-18T19:21:08;28.47;;;6.83;;
13797;SDS011;6970;51.340;3.240;2023-02-18T19:23:37;25.70;;;7.20;;
13797;SDS011;6970;51.340;3.240;2023-02-18T19:26:06;33.63;;;7.43;;
13797;SDS011;6970;51.340;3.240;2023-02-18T19:28:33;28.50;;;7.80;;